Chickering American River Reserve, California Weather observations

Data are for 10 minute period ending at time listed.
 Day   Time   Solar   Ave.   Ave.  Ave.  Vector  Max.   Baro.   Total    
  of    of     Rad.   Air    Rel.  Wind   Wind   Wind  Press.  Precip.   
Year   Day            Temp.  Hum.  Speed  Dir.   Gust                    
2016   (PST)  Kw/m2    F      %     mph   deg.    mph    mb.     in.     
-------------------------------------------------------------------------
  40   13:10   0.56   63.6    17    1.5   222     5.9   825.7    0.00 
  40   13:20   0.47   62.4    20    1.0    50     3.4   825.6    0.00 
  40   13:30   0.49   61.7    18    0.9   152     5.2   825.5    0.00 
  40   13:40   0.54   62.8    18    0.7   324     4.3   825.3    0.00 
  40   13:50   0.61   64.1    16    1.1   130     3.6   825.3    0.00 
  40   14:00   0.50   62.5    20    1.2   330     4.5   825.2    0.00 
  40   14:10   0.45   61.8    20    1.4   356     5.3   825.1    0.00 
  40   14:20   0.37   60.5    22    1.1    51     2.3   825.1    0.00 
  40   14:30   0.38   59.6    24    1.3   313     3.6   825.1    0.00 
  40   14:40   0.47   60.0    22    0.9   262     3.8   825.2    0.00 
  40   14:50   0.41   59.8    20    1.3   288     5.2   825.1    0.00 
  40   15:00   0.21   57.8    24    0.9   352     3.4   825.1    0.00 
  40   15:10   0.13   57.8    25    1.0   225     3.7   825.1    0.00 
  40   15:20   0.07   56.7    28    0.4   208     2.1   825.1    0.00 
  40   15:30   0.07   55.8    28    0.7   234     1.8   825.2    0.00 
  40   15:40   0.09   55.0    31    0.6   224     1.8   825.2    0.00 
  40   15:50   0.07   53.8    33    1.0   236     1.8   825.3    0.00 
  40   16:00   0.08   52.6    37    1.3   216     2.2   825.4    0.00 
  40   16:10   0.09   51.6    39    0.7   218     1.3   825.4    0.00 
  40   16:20   0.08   51.5    40    0.6   219     1.3   825.3    0.00 
  40   16:30   0.06   51.5    41    1.0   240     1.8   825.2    0.00 
  40   16:40   0.04   49.9    45    1.1   220     2.2   825.2    0.00 
  40   16:50   0.04   47.8    48    1.7   216     2.8   825.2    0.00 
  40   17:00   0.03   45.9    51    1.9   199     2.6   825.3    0.00 
  40   17:10   0.03   44.7    52    1.6   198     2.6   825.3    0.00 
  40   17:20   0.02   44.2    53    1.3   191     2.2   825.2    0.00 
  40   17:30   0.00   43.3    54    1.4   200     2.0   825.3    0.00 
  40   17:40   0.00   42.1    56    1.8   208     2.5   825.4    0.00 
  40   17:50   0.00   41.5    57    1.3   199     2.0   825.6    0.00 
  40   18:00   0.00   40.6    58    0.6   214     1.7   825.7    0.00 
  40   18:10   0.00   40.3    58    1.7   225     2.9   825.7    0.00 
  40   18:20   0.00   39.8    59    1.8   185     2.8   825.8    0.00 
  40   18:30   0.00   38.9    62    0.7   207     1.5   825.8    0.00 
  40   18:40   0.00   39.1    60    0.9   229     2.0   825.9    0.00 
  40   18:50   0.00   38.6    63    1.5   203     2.6   825.8    0.00 
  40   19:00   0.00   38.4    63    1.2   220     2.3   825.8    0.00 
  40   19:10   0.00   38.3    64    1.2   212     2.3   825.8    0.00 
  40   19:20   0.00   37.5    66    1.5   202     2.4   825.8    0.00 
  40   19:30   0.00   37.8    65    1.0   199     1.8   825.9    0.00 
  40   19:40   0.00   37.3    68    1.1   194     2.0   825.9    0.00 
  40   19:50   0.00   37.6    67    1.0   216     2.0   826.0    0.00 
  40   20:00   0.00   37.3    68    1.0   202     2.2   826.1    0.00 
  40   20:10   0.00   37.4    66    1.3   210     2.6   826.1    0.00 
  40   20:20   0.00   37.6    64    1.3   212     2.4   826.1    0.00 
  40   20:30   0.00   37.3    64    1.3   212     2.0   826.2    0.00 
  40   20:40   0.00   37.2    65    1.1   219     3.0   826.2    0.00 
  40   20:50   0.00   37.5    63    1.0   222     1.8   826.2    0.00 
  40   21:00   0.00   37.4    62    1.2   206     1.8   826.4    0.00 
  40   21:10   0.00   37.0    64    1.3   199     2.3   826.5    0.00 
  40   21:20   0.00   36.5    65    1.4   207     2.4   826.5    0.00 
  40   21:30   0.00   36.6    66    0.9   194     1.8   826.5    0.00 
  40   21:40   0.00   36.6    65    1.1   205     2.1   826.5    0.00 
  40   21:50   0.00   36.7    62    1.2   222     2.4   826.5    0.00 
  40   22:00   0.00   36.6    62    1.3   191     2.2   826.5    0.00 
  40   22:10   0.00   36.6    60    0.9   216     2.0   826.5    0.00 
  40   22:20   0.00   36.3    62    1.6   198     2.6   826.5    0.00 
  40   22:30   0.00   35.4    64    1.4   208     2.8   826.4    0.00 
  40   22:40   0.00   35.8    64    1.1   201     2.5   826.4    0.00 
  40   22:50   0.00   35.7    65    1.6   206     3.1   826.3    0.00 
  40   23:00   0.00   35.6    66    1.4   207     2.4   826.3    0.00 
  40   23:10   0.00   35.2    67    2.3   206     3.2   826.3    0.00 
  40   23:20   0.00   34.8    67    2.1   201     3.1   826.3    0.00 
  40   23:30   0.00   34.6    67    1.7   188     2.7   826.2    0.00 
  40   23:40   0.00   34.6    67    1.4   199     2.9   826.2    0.00 
  40   23:50   0.00   34.6    67    1.7   202     2.7   826.2    0.00 
  41    0:00   0.00   35.3    65    1.4   191     2.9   826.2    0.00 
  41    0:10   0.00   35.3    65    1.4   210     2.8   826.2    0.00 
  41    0:20   0.00   34.9    65    1.6   198     3.0   826.2    0.00 
  41    0:30   0.00   34.8    64    1.6   209     2.7   826.2    0.00 
  41    0:40   0.00   34.5    62    1.4   211     3.1   826.0    0.00 
  41    0:50   0.00   34.4    62    2.0   196     3.4   826.0    0.00 
  41    1:00   0.00   34.0    61    2.0   205     3.4   826.0    0.00 
  41    1:10   0.00   34.4    60    1.9   213     4.2   826.0    0.00 
  41    1:20   0.00   34.6    57    1.9   208     2.9   826.1    0.00 
  41    1:30   0.00   34.9    56    2.0   210     2.9   826.2    0.00 
  41    1:40   0.00   34.4    58    2.1   206     2.9   826.2    0.00 
  41    1:50   0.00   34.7    56    1.7   198     2.9   826.1    0.00 
  41    2:00   0.00   34.6    56    1.2   207     3.4   826.2    0.00 
  41    2:10   0.00   34.3    57    1.1   198     2.6   826.1    0.00 
  41    2:20   0.00   34.7    57    2.1   202     3.2   826.1    0.00 
  41    2:30   0.00   34.4    56    2.1   207     3.4   826.2    0.00 
  41    2:40   0.00   33.8    60    1.7   196     2.5   826.3    0.00 
  41    2:50   0.00   33.4    60    1.8   198     3.4   826.3    0.00 
  41    3:00   0.00   33.3    62    1.7   196     2.9   826.5    0.00 
  41    3:10   0.00   32.8    63    0.9   190     1.8   826.4    0.00 
  41    3:20   0.00   33.0    59    0.9   218     2.0   826.2    0.00 
  41    3:30   0.00   33.6    58    1.4   223     2.6   826.1    0.00 
  41    3:40   0.00   32.8    60    1.9   195     2.9   826.1    0.00 
  41    3:50   0.00   32.9    59    1.2   202     2.2   826.0    0.00 
  41    4:00   0.00   33.2    59    1.6   211     2.4   825.9    0.00 
  41    4:10   0.00   32.8    60    1.6   204     2.4   825.7    0.00 
  41    4:20   0.00   32.7    60    1.1   224     2.1   825.6    0.00 
  41    4:30   0.00   33.1    57    1.7   229     2.9   825.6    0.00 
  41    4:40   0.00   32.9    58    1.9   218     3.2   825.6    0.00 
  41    4:50   0.00   32.8    57    1.6   223     3.9   825.6    0.00 
  41    5:00   0.00   33.7    52    1.7   226     2.9   825.6    0.00 
  41    5:10   0.00   33.9    53    1.2   204     2.3   825.7    0.00 
  41    5:20   0.00   33.5    55    1.8   195     2.7   825.8    0.00 
  41    5:30   0.00   32.7    58    1.6   200     2.8   825.8    0.00 
  41    5:40   0.00   32.4    60    1.1   196     2.3   825.9    0.00 
  41    5:50   0.00   32.1    60    1.6   198     3.2   826.0    0.00 
  41    6:00   0.00   32.4    59    1.9   209     3.3   825.9    0.00 
  41    6:10   0.00   31.9    61    1.5   193     2.6   826.0    0.00 
  41    6:20   0.00   31.6    61    1.9   196     2.6   826.2    0.00 
  41    6:30   0.00   31.6    60    1.5   201     2.4   826.3    0.00 
  41    6:40   0.00   31.5    62    2.0   193     3.0   826.4    0.00 
  41    6:50   0.00   31.0    63    1.5   194     2.4   826.5    0.00 
  41    7:00   0.00   31.1    62    1.6   201     2.8   826.6    0.00 
  41    7:10   0.00   31.6    62    1.3   196     2.1   826.6    0.00 
  41    7:20   0.00   31.6    61    0.9   219     2.0   826.6    0.00 
  41    7:30   0.00   32.0    60    1.3   206     2.6   826.7    0.00 
  41    7:40   0.00   31.8    61    0.9   216     1.6   826.8    0.00 
  41    7:50   0.01   32.4    57    1.0   212     2.2   826.9    0.00 
  41    8:00   0.02   33.1    57    1.1   205     2.3   827.0    0.00 
  41    8:10   0.03   33.2    60    0.1   189     0.8   827.0    0.00 
  41    8:20   0.03   34.6    59    0.0   230     0.6   827.0    0.00 
  41    8:30   0.05   36.5    57    0.1   237     0.7   827.1    0.00 
  41    8:40   0.03   38.2    56    0.1    59     1.3   827.2    0.00 
  41    8:50   0.04   40.4    48    0.8    63     2.8   827.3    0.00 
  41    9:00   0.04   43.2    41    0.6    66     3.0   827.3    0.00 
  41    9:10   0.03   45.3    38    0.4    46     1.8   827.4    0.00 
  41    9:20   0.05   46.6    38    0.4    55     1.6   827.5    0.00 
  41    9:30   0.03   46.9    40    1.1    64     2.4   827.5    0.00 
  41    9:40   0.06   47.9    38    0.7    76     1.8   827.6    0.00 
  41    9:50   0.05   49.2    36    1.1    59     2.4   827.6    0.00 
  41   10:00   0.05   50.7    27    1.6    73     3.0   827.7    0.00 
  41   10:10   0.06   52.7    24    1.8    74     3.4   827.7    0.00 
  41   10:20   0.06   53.7    24    1.3    57     3.4   827.6    0.00 
  41   10:30   0.10   53.2    28    1.1     3     3.3   827.7    0.00 
  41   10:40   0.39   53.3    26    1.1    36     2.9   827.7    0.00 
  41   10:50   0.60   55.6    25    1.1   109     3.4   827.7    0.00 
  41   11:00   0.55   58.3    21    1.4   176     4.3   827.6    0.00 
  41   11:10   0.48   59.1    20    1.2   167     3.5   827.5    0.00 
  41   11:20   0.54   59.2    19    0.6   153     2.5   827.5    0.00 
  41   11:30   0.56   60.0    20    1.1     9     4.7   827.3    0.00 
  41   11:40   0.72   59.0    22    1.3   350     5.1   827.2    0.00 
  41   11:50   0.69   60.3    18    1.5    16     3.5   827.1    0.00 
  41   12:00   0.50   60.6    21    1.0    31     3.5   827.0    0.00 
  41   12:10   0.56   58.2    22    1.1    21     3.1   826.8    0.00 
  41   12:20   0.38   58.0    24    1.1   349     3.5   826.7    0.00 
  41   12:30   0.64   57.2    25    0.7   352     2.6   826.5    0.00 
  41   12:40   0.43   59.4    22    0.6    12     3.2   826.4    0.00 
  41   12:50   0.26   57.6    25    0.9   330     2.4   826.4    0.00 
  41   13:00   0.28   55.4    28    0.4    16     2.6   826.5    0.00 

Return to Chickering American River Reserve graphs page.


Western Regional Climate Center,wrcc@dri.edu